createdAt,value
2023-02-06T00:01:30.414Z,5.58
2023-02-06T00:03:58.195Z,5.91
2023-02-06T00:06:27.711Z,5.74
2023-02-06T00:08:55.512Z,5.72
2023-02-06T00:11:23.683Z,5.58
2023-02-06T00:13:51.942Z,5.60
2023-02-06T00:16:21.471Z,5.18
2023-02-06T00:18:50.352Z,5.14
2023-02-06T00:21:20.308Z,5.14
2023-02-06T00:23:50.391Z,5.43
2023-02-06T00:26:18.697Z,4.87
2023-02-06T00:28:47.094Z,4.98
2023-02-06T00:31:15.884Z,5.18
2023-02-06T00:33:43.885Z,5.48
2023-02-06T00:36:11.853Z,5.29
2023-02-06T00:38:39.979Z,5.31
2023-02-06T00:41:09.108Z,5.68
2023-02-06T00:43:37.314Z,5.18
2023-02-06T00:46:05.236Z,5.04
2023-02-06T00:48:33.013Z,5.55
2023-02-06T00:51:00.759Z,5.36
2023-02-06T00:53:28.631Z,5.50
2023-02-06T00:55:56.580Z,5.01
2023-02-06T00:58:25.693Z,5.74
2023-02-06T01:00:54.008Z,5.12
2023-02-06T01:03:21.876Z,5.09
2023-02-06T01:05:50.007Z,5.60
2023-02-06T01:08:17.794Z,5.53
2023-02-06T01:10:46.170Z,5.51
2023-02-06T01:13:14.014Z,5.19
2023-02-06T01:15:43.311Z,5.53
2023-02-06T01:18:11.151Z,5.25
2023-02-06T01:20:40.798Z,5.91
2023-02-06T01:23:08.656Z,5.17
2023-02-06T01:25:37.894Z,5.40
2023-02-06T01:28:06.045Z,5.52
2023-02-06T01:30:33.959Z,5.26
2023-02-06T01:33:03.085Z,5.28
2023-02-06T01:35:30.810Z,5.47
2023-02-06T01:37:58.554Z,5.75
2023-02-06T01:40:26.335Z,5.12
2023-02-06T01:42:54.111Z,5.43
2023-02-06T01:45:45.578Z,5.46
2023-02-06T01:48:20.101Z,5.47
2023-02-06T01:50:52.261Z,5.24
2023-02-06T01:53:21.901Z,5.58
2023-02-06T01:55:55.129Z,5.31
2023-02-06T01:58:28.754Z,5.24
2023-02-06T02:00:57.482Z,5.76
2023-02-06T02:03:26.982Z,6.09
2023-02-06T02:06:00.923Z,6.16
2023-02-06T02:08:34.908Z,5.74
2023-02-06T02:11:05.314Z,5.42
2023-02-06T02:13:34.345Z,5.87
2023-02-06T02:16:08.366Z,5.66
2023-02-06T02:18:53.674Z,5.89
2023-02-06T02:21:51.980Z,5.72
2023-02-06T02:24:26.444Z,5.75
2023-02-06T02:27:20.286Z,6.04
2023-02-06T02:30:19.416Z,5.59
2023-02-06T02:33:27.442Z,5.75
2023-02-06T02:36:01.419Z,6.02
2023-02-06T02:38:40.702Z,5.57
2023-02-06T02:41:15.513Z,5.36
2023-02-06T02:43:46.223Z,5.16
2023-02-06T02:46:20.891Z,5.28
2023-02-06T02:48:53.066Z,5.05
2023-02-06T02:51:22.504Z,5.07
2023-02-06T02:53:50.245Z,4.83
2023-02-06T02:56:20.647Z,5.11
2023-02-06T02:58:54.182Z,5.69
2023-02-06T03:01:33.947Z,5.05
2023-02-06T03:04:06.671Z,5.24
2023-02-06T03:07:09.149Z,5.47
2023-02-06T03:09:47.342Z,5.53
2023-02-06T03:12:23.164Z,5.57
2023-02-06T03:14:55.108Z,4.84
2023-02-06T03:17:32.408Z,4.97
2023-02-06T03:20:03.504Z,5.05
2023-02-06T03:22:35.475Z,5.29
2023-02-06T03:25:06.345Z,5.26
2023-02-06T03:27:35.745Z,4.60
2023-02-06T03:30:05.536Z,5.08
2023-02-06T03:32:37.534Z,4.61
2023-02-06T03:35:09.286Z,5.00
2023-02-06T03:37:39.288Z,4.40
2023-02-06T03:40:09.002Z,4.72
2023-02-06T03:42:40.248Z,4.66
2023-02-06T03:45:13.980Z,4.57
2023-02-06T03:47:45.457Z,4.90
2023-02-06T03:50:14.780Z,5.28
2023-02-06T03:52:48.307Z,4.87
2023-02-06T03:55:19.156Z,4.62
2023-02-06T03:57:50.123Z,4.48
2023-02-06T04:00:18.020Z,4.60
2023-02-06T04:02:48.470Z,5.09
2023-02-06T04:05:18.209Z,5.49
2023-02-06T04:07:47.391Z,4.99
2023-02-06T04:10:15.273Z,5.08
2023-02-06T04:12:43.008Z,4.01
2023-02-06T04:15:11.609Z,4.54
2023-02-06T04:17:53.516Z,4.89
2023-02-06T04:20:25.605Z,4.91
2023-02-06T04:22:54.733Z,5.36
2023-02-06T04:25:22.533Z,5.29
2023-02-06T04:27:50.587Z,5.10
2023-02-06T04:30:18.768Z,5.53
2023-02-06T04:32:46.555Z,5.00
2023-02-06T04:35:14.314Z,5.31
2023-02-06T04:37:42.129Z,5.26
2023-02-06T04:40:13.023Z,5.64
2023-02-06T04:42:40.836Z,5.53
2023-02-06T04:45:09.642Z,5.10
2023-02-06T04:47:37.375Z,5.05
2023-02-06T04:50:05.771Z,5.39
2023-02-06T04:52:36.487Z,5.45
2023-02-06T04:55:04.266Z,5.23
2023-02-06T04:57:33.407Z,5.27
2023-02-06T05:00:01.181Z,5.47
2023-02-06T05:02:29.118Z,5.58
2023-02-06T05:04:56.862Z,4.94
2023-02-06T05:07:25.013Z,4.96
2023-02-06T05:09:52.732Z,5.26
2023-02-06T05:12:20.480Z,5.37
2023-02-06T05:14:49.587Z,5.23
2023-02-06T05:17:18.159Z,5.47
2023-02-06T05:19:46.080Z,4.73
2023-02-06T05:22:14.130Z,4.87
2023-02-06T05:24:41.927Z,4.99
2023-02-06T05:27:09.737Z,5.14
2023-02-06T05:29:37.471Z,5.33
2023-02-06T05:32:06.669Z,4.96
2023-02-06T05:34:34.444Z,4.63
2023-02-06T05:37:02.200Z,5.46
2023-02-06T05:39:30.159Z,5.71
2023-02-06T05:41:57.858Z,4.98
2023-02-06T05:44:25.640Z,5.08
2023-02-06T05:46:54.237Z,5.20
2023-02-06T05:49:23.323Z,5.20
2023-02-06T05:51:51.099Z,5.42
2023-02-06T05:54:19.119Z,5.16
2023-02-06T05:56:46.897Z,5.71
2023-02-06T05:59:14.637Z,5.81
2023-02-06T06:01:42.826Z,5.29
2023-02-06T06:04:10.682Z,5.84
2023-02-06T06:06:39.899Z,4.99
2023-02-06T06:09:08.120Z,5.55
2023-02-06T06:11:35.878Z,5.35
2023-02-06T06:14:03.669Z,4.80
2023-02-06T06:16:31.388Z,5.12
2023-02-06T06:18:59.087Z,5.78
2023-02-06T06:21:26.866Z,4.95
2023-02-06T06:23:55.933Z,5.33
2023-02-06T06:26:23.786Z,5.14
2023-02-06T06:28:51.497Z,5.20
2023-02-06T06:31:19.297Z,4.83
2023-02-06T06:33:47.092Z,5.32
2023-02-06T06:36:15.263Z,4.75
2023-02-06T06:38:43.145Z,5.19
2023-02-06T06:41:12.366Z,4.47
2023-02-06T06:43:40.816Z,4.53
2023-02-06T06:46:08.777Z,4.53
2023-02-06T06:48:38.222Z,4.59
2023-02-06T06:51:06.595Z,4.45
2023-02-06T06:53:34.635Z,4.66
2023-02-06T06:56:04.656Z,5.00
2023-02-06T06:58:34.108Z,5.15
2023-02-06T07:01:02.033Z,4.91
2023-02-06T07:03:29.881Z,4.80
2023-02-06T07:05:57.683Z,4.47
2023-02-06T07:08:25.418Z,4.92
2023-02-06T07:10:53.172Z,4.72
2023-02-06T07:13:20.987Z,4.88
2023-02-06T07:15:50.109Z,4.88
2023-02-06T07:18:17.882Z,4.66
2023-02-06T07:20:45.603Z,5.19
2023-02-06T07:23:13.320Z,4.77
2023-02-06T07:25:41.188Z,5.11
2023-02-06T07:28:09.166Z,4.89
2023-02-06T07:30:36.989Z,5.08
2023-02-06T07:33:07.451Z,4.96
2023-02-06T07:35:35.845Z,4.82
2023-02-06T07:38:03.784Z,4.65
2023-02-06T07:40:44.053Z,5.55
2023-02-06T07:43:12.296Z,4.45
2023-02-06T07:45:40.289Z,4.82
2023-02-06T07:48:09.802Z,5.05
2023-02-06T07:50:37.590Z,5.02
2023-02-06T07:53:05.416Z,5.14
2023-02-06T07:55:33.138Z,5.72
2023-02-06T07:58:00.857Z,5.77
2023-02-06T08:00:28.606Z,5.38
2023-02-06T08:02:56.382Z,5.18
2023-02-06T08:05:25.630Z,5.06
2023-02-06T08:07:53.352Z,5.02
2023-02-06T08:10:21.081Z,5.05
2023-02-06T08:12:48.821Z,4.88
2023-02-06T08:15:17.156Z,5.06
2023-02-06T08:17:44.998Z,4.98
2023-02-06T08:20:13.625Z,5.71
2023-02-06T08:22:42.695Z,5.84
2023-02-06T08:25:10.484Z,5.74
2023-02-06T08:27:38.266Z,5.28
2023-02-06T08:30:06.932Z,5.40
2023-02-06T08:32:36.062Z,5.76
2023-02-06T08:35:03.854Z,5.36
2023-02-06T08:37:32.574Z,5.62
2023-02-06T08:40:01.670Z,5.65
2023-02-06T08:42:29.386Z,5.19
2023-02-06T08:44:57.158Z,5.07
2023-02-06T08:47:24.924Z,5.21
2023-02-06T08:49:52.673Z,5.60
2023-02-06T08:52:20.505Z,5.54
2023-02-06T08:54:48.264Z,6.01
2023-02-06T08:57:17.430Z,5.51
2023-02-06T08:59:45.137Z,5.32
2023-02-06T09:02:12.918Z,5.43
2023-02-06T09:04:42.663Z,6.19
2023-02-06T09:07:10.469Z,5.59
2023-02-06T09:09:38.329Z,5.86
2023-02-06T09:12:06.438Z,5.74
2023-02-06T09:14:35.863Z,6.06
2023-02-06T09:17:03.696Z,5.88
2023-02-06T09:19:31.412Z,5.65
2023-02-06T09:21:59.210Z,5.75
2023-02-06T09:24:30.111Z,5.88
2023-02-06T09:27:00.240Z,5.85
2023-02-06T09:29:31.558Z,6.57
2023-02-06T09:32:01.183Z,6.08
2023-02-06T09:34:29.965Z,5.86
2023-02-06T09:36:57.969Z,5.60
2023-02-06T09:39:26.053Z,5.87
2023-02-06T09:41:56.227Z,5.86
2023-02-06T09:44:31.519Z,5.59
2023-02-06T09:47:05.407Z,5.48
2023-02-06T09:49:38.216Z,5.80
2023-02-06T09:52:24.631Z,6.17
2023-02-06T09:55:01.322Z,6.07
2023-02-06T09:57:38.908Z,5.49
2023-02-06T10:00:14.930Z,6.13
2023-02-06T10:03:15.795Z,5.83
2023-02-06T10:05:50.738Z,6.02
2023-02-06T10:08:25.202Z,6.25
2023-02-06T10:10:56.463Z,6.33
2023-02-06T10:13:30.117Z,5.43
2023-02-06T10:16:05.334Z,5.78
2023-02-06T10:18:40.340Z,5.97
2023-02-06T10:21:16.258Z,5.95
2023-02-06T10:23:50.285Z,5.79
2023-02-06T10:26:20.316Z,6.14
2023-02-06T10:28:51.253Z,5.96
2023-02-06T10:31:35.806Z,6.59
2023-02-06T10:34:27.119Z,6.39
2023-02-06T10:37:09.552Z,6.29
2023-02-06T10:39:54.793Z,5.67
2023-02-06T10:42:30.531Z,5.80
2023-02-06T10:45:18.929Z,6.20
2023-02-06T10:47:54.329Z,6.74
2023-02-06T10:50:29.552Z,5.92
2023-02-06T10:53:01.327Z,5.74
2023-02-06T10:55:34.658Z,6.23
2023-02-06T10:58:13.195Z,6.41
2023-02-06T11:00:42.255Z,6.15
2023-02-06T11:03:15.496Z,6.28
2023-02-06T11:05:44.640Z,6.16
2023-02-06T11:08:19.915Z,6.19
2023-02-06T11:10:47.946Z,6.84
2023-02-06T11:13:21.991Z,6.47
2023-02-06T11:15:57.402Z,6.46
2023-02-06T11:18:29.521Z,5.85
2023-02-06T11:20:59.157Z,5.42
2023-02-06T11:23:28.667Z,5.97
2023-02-06T11:26:05.930Z,6.12
2023-02-06T11:28:35.124Z,5.81
2023-02-06T11:31:05.663Z,6.42
2023-02-06T11:33:49.013Z,6.78
2023-02-06T11:36:28.332Z,6.50
2023-02-06T11:38:58.983Z,6.39
2023-02-06T11:41:27.558Z,6.24
2023-02-06T11:44:02.411Z,6.63
2023-02-06T11:46:32.443Z,6.04
2023-02-06T11:49:07.360Z,6.49
2023-02-06T11:51:52.372Z,6.27
2023-02-06T11:54:23.316Z,6.12
2023-02-06T11:57:04.883Z,6.26
2023-02-06T11:59:34.941Z,6.15
2023-02-06T12:02:06.942Z,6.04
2023-02-06T12:04:40.697Z,6.14
2023-02-06T12:07:15.758Z,6.78
2023-02-06T12:09:43.856Z,7.18
2023-02-06T12:12:22.410Z,7.20
2023-02-06T12:14:53.869Z,6.35
2023-02-06T12:17:28.718Z,6.64
2023-02-06T12:20:05.277Z,6.33
2023-02-06T12:22:40.484Z,7.19
2023-02-06T12:25:26.977Z,6.13
2023-02-06T12:27:58.888Z,6.19
2023-02-06T12:30:33.088Z,6.28
2023-02-06T12:33:08.083Z,6.08
2023-02-06T12:35:41.129Z,6.32
2023-02-06T12:38:16.482Z,6.25
2023-02-06T12:40:50.596Z,6.30
2023-02-06T12:43:19.393Z,6.88
2023-02-06T12:45:52.025Z,6.95
2023-02-06T12:48:26.905Z,7.09
2023-02-06T12:51:05.981Z,6.46
2023-02-06T12:53:40.500Z,6.42
2023-02-06T12:56:17.245Z,6.60
2023-02-06T12:58:55.101Z,6.20
2023-02-06T13:01:39.135Z,6.04
2023-02-06T13:04:13.439Z,6.32
2023-02-06T13:06:48.813Z,6.36
2023-02-06T13:09:25.611Z,6.77
2023-02-06T13:11:53.863Z,7.06
2023-02-06T13:14:23.920Z,6.84
2023-02-06T13:16:58.182Z,6.65
2023-02-06T13:19:32.146Z,6.53
2023-02-06T13:22:36.317Z,6.73
2023-02-06T13:25:49.538Z,6.41
2023-02-06T13:28:42.896Z,6.19
2023-02-06T13:31:27.062Z,6.80
2023-02-06T13:33:58.276Z,7.05
2023-02-06T13:36:41.981Z,6.74
2023-02-06T13:39:25.107Z,6.76
2023-02-06T13:41:54.731Z,6.39
2023-02-06T13:44:28.290Z,6.34
2023-02-06T13:47:21.456Z,6.61
2023-02-06T13:50:17.649Z,6.67
2023-02-06T13:52:53.365Z,6.54
2023-02-06T13:55:36.610Z,6.30
2023-02-06T13:58:25.541Z,6.65
2023-02-06T14:00:55.830Z,6.22
2023-02-06T14:03:26.834Z,6.35
2023-02-06T14:06:00.933Z,6.17
2023-02-06T14:08:42.506Z,6.53
2023-02-06T14:11:44.517Z,6.45
2023-02-06T14:14:40.948Z,6.27
2023-02-06T14:17:17.323Z,6.25
2023-02-06T14:19:54.268Z,5.99
2023-02-06T14:22:30.778Z,6.32
2023-02-06T14:25:13.098Z,6.01
2023-02-06T14:28:01.833Z,6.43
2023-02-06T14:30:38.785Z,6.16
2023-02-06T14:33:18.766Z,6.50
2023-02-06T14:36:03.576Z,6.31
2023-02-06T14:38:54.555Z,5.76
2023-02-06T14:41:22.587Z,6.23
2023-02-06T14:43:52.067Z,6.38
2023-02-06T14:46:21.522Z,6.16
2023-02-06T14:48:52.120Z,6.31
2023-02-06T14:51:25.591Z,5.92
2023-02-06T14:53:56.322Z,6.31
2023-02-06T14:56:30.452Z,6.12
2023-02-06T14:59:09.613Z,6.19
2023-02-06T15:01:38.712Z,6.15
2023-02-06T15:04:12.309Z,6.39
2023-02-06T15:06:42.090Z,6.34
2023-02-06T15:09:22.724Z,5.39
2023-02-06T15:11:52.640Z,5.85
2023-02-06T15:14:23.118Z,6.15
2023-02-06T15:16:53.003Z,5.33
2023-02-06T15:19:23.219Z,5.00
2023-02-06T15:21:53.618Z,5.63
2023-02-06T15:24:38.395Z,5.07
2023-02-06T15:27:13.813Z,5.13
2023-02-06T15:29:41.642Z,5.12
2023-02-06T15:32:23.562Z,5.20
2023-02-06T15:34:51.526Z,4.61
2023-02-06T15:37:22.436Z,4.90
2023-02-06T15:39:51.217Z,5.32
2023-02-06T15:42:21.002Z,5.09
2023-02-06T15:44:52.159Z,4.89
2023-02-06T15:47:22.787Z,5.08
2023-02-06T15:49:53.198Z,5.21
2023-02-06T15:52:42.998Z,4.82
2023-02-06T15:55:24.086Z,5.25
2023-02-06T15:57:53.114Z,4.76
2023-02-06T16:00:24.502Z,4.95
2023-02-06T16:02:56.460Z,4.76
2023-02-06T16:05:30.552Z,4.64
2023-02-06T16:07:58.975Z,4.42
2023-02-06T16:10:29.392Z,4.72
2023-02-06T16:13:00.127Z,4.46
2023-02-06T16:15:31.760Z,4.40
2023-02-06T16:18:02.916Z,3.98
2023-02-06T16:20:39.788Z,4.08
2023-02-06T16:23:22.009Z,4.45
2023-02-06T16:26:00.153Z,4.04
2023-02-06T16:28:28.814Z,4.08
2023-02-06T16:30:58.761Z,4.39
2023-02-06T16:33:35.040Z,4.32
2023-02-06T16:36:02.849Z,3.98
2023-02-06T16:38:30.789Z,3.64
2023-02-06T16:40:58.546Z,3.50
2023-02-06T16:43:28.313Z,3.68
2023-02-06T16:45:56.099Z,3.83
2023-02-06T16:48:23.910Z,4.23
2023-02-06T16:50:53.004Z,3.63
2023-02-06T16:53:23.989Z,3.94
2023-02-06T16:55:52.432Z,3.75
2023-02-06T16:58:23.867Z,3.87
2023-02-06T17:00:52.825Z,3.95
2023-02-06T17:03:20.573Z,3.80
2023-02-06T17:05:50.430Z,3.98
2023-02-06T17:08:23.162Z,4.00
2023-02-06T17:10:51.381Z,3.82
2023-02-06T17:13:21.242Z,3.55
2023-02-06T17:15:52.195Z,3.98
2023-02-06T17:18:22.665Z,4.04
2023-02-06T17:20:52.771Z,4.24
2023-02-06T17:23:21.971Z,4.05
2023-02-06T17:25:50.845Z,4.10
2023-02-06T17:28:20.810Z,4.11
2023-02-06T17:30:50.822Z,3.94
2023-02-06T17:33:19.069Z,4.00
2023-02-06T17:35:48.360Z,3.33
2023-02-06T17:38:16.201Z,3.65
2023-02-06T17:40:45.676Z,3.61
2023-02-06T17:43:13.550Z,3.53
2023-02-06T17:45:42.146Z,3.79
2023-02-06T17:48:10.273Z,3.87
2023-02-06T17:50:38.975Z,3.75
2023-02-06T17:53:08.765Z,3.74
2023-02-06T17:55:37.201Z,3.63
2023-02-06T17:58:06.576Z,3.63
2023-02-06T18:00:34.814Z,3.62
2023-02-06T18:03:05.127Z,3.20
2023-02-06T18:05:33.113Z,3.41
2023-02-06T18:08:00.868Z,3.54
2023-02-06T18:10:28.598Z,3.51
2023-02-06T18:12:56.775Z,3.47
2023-02-06T18:15:25.911Z,3.10
2023-02-06T18:17:54.830Z,2.93
2023-02-06T18:20:22.881Z,2.91
2023-02-06T18:22:50.629Z,3.27
2023-02-06T18:25:18.497Z,3.43
2023-02-06T18:27:46.539Z,3.34
2023-02-06T18:30:15.228Z,2.96
2023-02-06T18:32:44.380Z,2.97
2023-02-06T18:35:12.594Z,2.82
2023-02-06T18:37:40.316Z,2.73
2023-02-06T18:40:08.569Z,2.69
2023-02-06T18:42:53.666Z,2.42
2023-02-06T18:45:22.830Z,2.77
2023-02-06T18:47:52.526Z,2.86
2023-02-06T18:50:21.973Z,3.20
2023-02-06T18:52:50.627Z,3.26
2023-02-06T18:55:18.429Z,3.02
2023-02-06T18:57:46.678Z,2.80
2023-02-06T19:00:16.649Z,3.39
2023-02-06T19:02:44.495Z,3.20
2023-02-06T19:05:13.881Z,2.88
2023-02-06T19:07:41.737Z,2.62
2023-02-06T19:10:12.969Z,2.40
2023-02-06T19:12:40.771Z,2.64
2023-02-06T19:15:09.561Z,2.38
2023-02-06T19:17:37.640Z,2.73
2023-02-06T19:20:06.566Z,2.53
2023-02-06T19:22:36.689Z,2.68
2023-02-06T19:25:05.798Z,2.62
2023-02-06T19:27:33.556Z,2.28
2023-02-06T19:30:01.311Z,2.22
2023-02-06T19:32:29.415Z,2.27
2023-02-06T19:34:57.837Z,2.11
2023-02-06T19:37:25.639Z,2.38
2023-02-06T19:39:54.734Z,1.98
2023-02-06T19:42:22.501Z,1.98
2023-02-06T19:44:53.862Z,2.13
2023-02-06T19:47:21.746Z,1.69
2023-02-06T19:49:51.695Z,1.90
2023-02-06T19:52:20.136Z,1.56
2023-02-06T19:54:48.664Z,1.50
2023-02-06T19:57:19.411Z,2.45
2023-02-06T19:59:47.349Z,1.83
2023-02-06T20:02:16.746Z,2.13
2023-02-06T20:04:45.253Z,1.72
2023-02-06T20:07:13.755Z,2.09
2023-02-06T20:09:42.665Z,1.94
2023-02-06T20:12:12.368Z,1.69
2023-02-06T20:14:41.604Z,1.59
2023-02-06T20:17:09.458Z,1.62
2023-02-06T20:19:37.252Z,1.85
2023-02-06T20:22:05.237Z,1.83
2023-02-06T20:24:33.584Z,1.48
2023-02-06T20:27:04.258Z,1.64
2023-02-06T20:29:34.661Z,1.65
2023-02-06T20:32:04.532Z,1.64
2023-02-06T20:34:32.452Z,1.68
2023-02-06T20:37:00.390Z,1.97
2023-02-06T20:39:34.566Z,1.76
2023-02-06T20:42:02.889Z,1.44
2023-02-06T20:44:31.418Z,1.54
2023-02-06T20:46:59.302Z,1.64
2023-02-06T20:49:31.183Z,1.25
2023-02-06T20:51:59.305Z,1.22
2023-02-06T20:54:30.859Z,1.38
2023-02-06T20:57:00.719Z,2.23
2023-02-06T20:59:30.619Z,2.21
2023-02-06T21:01:58.409Z,4.35
2023-02-06T21:04:26.847Z,4.78
2023-02-06T21:06:56.291Z,3.92
2023-02-06T21:09:24.064Z,3.29
2023-02-06T21:11:51.829Z,2.97
2023-02-06T21:14:20.518Z,2.74
2023-02-06T21:16:48.682Z,1.72
2023-02-06T21:19:18.661Z,1.73
2023-02-06T21:21:46.809Z,1.84
2023-02-06T21:24:16.621Z,1.94
2023-02-06T21:26:45.054Z,1.80
2023-02-06T21:29:14.513Z,2.06
2023-02-06T21:31:42.947Z,2.21
2023-02-06T21:34:14.801Z,1.80
2023-02-06T21:36:43.527Z,2.06
2023-02-06T21:39:13.027Z,1.96
2023-02-06T21:41:42.188Z,2.00
2023-02-06T21:44:09.941Z,1.75
2023-02-06T21:46:38.076Z,1.73
2023-02-06T21:49:09.223Z,1.87
2023-02-06T21:51:36.995Z,0.86
2023-02-06T21:54:05.079Z,1.38
2023-02-06T21:56:32.999Z,1.47
2023-02-06T21:59:02.128Z,1.16
2023-02-06T22:01:32.667Z,1.39
2023-02-06T22:04:01.302Z,1.21
2023-02-06T22:06:29.808Z,1.31
2023-02-06T22:09:05.056Z,0.91
2023-02-06T22:11:33.391Z,0.73
2023-02-06T22:14:05.293Z,0.88
2023-02-06T22:16:33.464Z,0.95
2023-02-06T22:19:01.743Z,1.14
2023-02-06T22:21:31.648Z,1.16
2023-02-06T22:24:01.563Z,1.30
2023-02-06T22:26:31.132Z,1.33
2023-02-06T22:28:59.187Z,1.25
2023-02-06T22:31:31.114Z,1.35
2023-02-06T22:34:00.182Z,0.97
2023-02-06T22:36:30.037Z,1.47
2023-02-06T22:39:00.519Z,1.82
2023-02-06T22:41:29.191Z,1.58
2023-02-06T22:43:57.514Z,1.47
2023-02-06T22:46:29.797Z,1.44
2023-02-06T22:48:58.221Z,1.44
2023-02-06T22:51:27.473Z,1.78
2023-02-06T22:53:56.371Z,1.49
2023-02-06T22:56:32.551Z,1.64
2023-02-06T22:59:03.066Z,1.35
2023-02-06T23:01:34.917Z,1.64
2023-02-06T23:04:04.458Z,2.26
2023-02-06T23:06:34.392Z,1.52
2023-02-06T23:09:03.803Z,1.48
2023-02-06T23:11:32.539Z,1.25
2023-02-06T23:14:02.095Z,1.09
2023-02-06T23:16:33.202Z,0.74
2023-02-06T23:19:01.776Z,0.61
2023-02-06T23:21:29.504Z,0.24
2023-02-06T23:23:59.650Z,0.48
2023-02-06T23:26:28.103Z,0.67
2023-02-06T23:28:57.100Z,0.45
2023-02-06T23:31:25.076Z,0.23
2023-02-06T23:33:54.635Z,0.63
2023-02-06T23:36:24.865Z,0.45
2023-02-06T23:38:53.449Z,0.19
2023-02-06T23:41:24.913Z,0.24
2023-02-06T23:43:53.679Z,0.51
2023-02-06T23:46:22.309Z,0.51
2023-02-06T23:48:50.860Z,0.44
2023-02-06T23:51:20.995Z,0.59
2023-02-06T23:53:49.106Z,1.10
2023-02-06T23:56:18.691Z,0.70
2023-02-06T23:58:46.890Z,0.82
